createdAt,value
2023-02-17T00:02:15.736Z,10.38
2023-02-17T00:04:48.499Z,10.82
2023-02-17T00:07:20.368Z,10.17
2023-02-17T00:09:53.158Z,10.20
2023-02-17T00:12:25.226Z,8.25
2023-02-17T00:14:57.591Z,11.15
2023-02-17T00:17:30.569Z,20.25
2023-02-17T00:20:02.469Z,9.33
2023-02-17T00:22:35.221Z,13.20
2023-02-17T00:25:07.888Z,10.95
2023-02-17T00:27:39.821Z,12.20
2023-02-17T00:30:13.058Z,12.88
2023-02-17T00:32:45.460Z,12.73
2023-02-17T00:35:18.327Z,10.20
2023-02-17T00:37:50.332Z,12.02
2023-02-17T00:40:22.695Z,10.88
2023-02-17T00:42:54.945Z,11.48
2023-02-17T00:45:27.725Z,12.47
2023-02-17T00:47:59.663Z,13.20
2023-02-17T00:50:32.418Z,12.13
2023-02-17T00:53:04.760Z,8.18
2023-02-17T00:55:38.689Z,10.63
2023-02-17T00:58:11.437Z,11.90
2023-02-17T01:00:43.365Z,9.18
2023-02-17T01:03:16.218Z,12.30
2023-02-17T01:05:50.200Z,8.43
2023-02-17T01:08:23.784Z,8.55
2023-02-17T01:10:55.926Z,8.27
2023-02-17T01:13:29.871Z,15.23
2023-02-17T01:16:01.804Z,9.75
2023-02-17T01:18:34.631Z,8.13
2023-02-17T01:21:06.882Z,12.38
2023-02-17T01:23:39.622Z,9.47
2023-02-17T01:26:19.583Z,9.93
2023-02-17T01:28:54.451Z,12.43
2023-02-17T01:31:28.740Z,8.45
2023-02-17T01:34:03.566Z,12.38
2023-02-17T01:36:37.136Z,14.30
2023-02-17T01:39:10.496Z,11.45
2023-02-17T01:41:44.301Z,11.50
2023-02-17T01:44:23.459Z,8.50
2023-02-17T01:46:56.788Z,10.73
2023-02-17T01:49:37.042Z,9.67
2023-02-17T01:52:24.136Z,10.65
2023-02-17T01:55:05.408Z,11.27
2023-02-17T01:57:41.649Z,10.73
2023-02-17T02:00:15.279Z,10.15
2023-02-17T02:02:50.936Z,10.73
2023-02-17T02:05:25.001Z,11.23
2023-02-17T02:07:58.316Z,10.10
2023-02-17T02:10:30.227Z,13.18
2023-02-17T02:13:03.938Z,8.95
2023-02-17T02:15:59.242Z,10.30
2023-02-17T02:18:54.464Z,8.73
2023-02-17T02:21:50.125Z,10.45
2023-02-17T02:24:49.177Z,10.48
2023-02-17T02:27:33.382Z,10.07
2023-02-17T02:34:45.515Z,9.38
2023-02-17T02:37:26.607Z,11.63
2023-02-17T02:40:04.035Z,11.18
2023-02-17T02:42:39.672Z,7.03
2023-02-17T02:45:13.666Z,6.93
2023-02-17T02:47:53.886Z,8.40
2023-02-17T02:50:58.061Z,9.43
2023-02-17T02:54:05.031Z,7.82
2023-02-17T02:57:10.046Z,9.30
2023-02-17T03:00:12.182Z,9.07
2023-02-17T03:03:15.824Z,9.80
2023-02-17T03:05:59.803Z,7.03
2023-02-17T03:08:54.174Z,8.82
2023-02-17T03:11:33.647Z,11.80
2023-02-17T03:14:16.048Z,7.77
2023-02-17T03:16:50.933Z,8.55
2023-02-17T03:19:25.782Z,7.20
2023-02-17T03:22:09.444Z,10.32
2023-02-17T03:24:42.635Z,6.47
2023-02-17T03:27:15.957Z,6.43
2023-02-17T03:29:48.781Z,9.82
2023-02-17T03:32:22.287Z,7.55
2023-02-17T03:34:55.070Z,7.63
2023-02-17T03:37:27.499Z,7.20
2023-02-17T03:40:00.272Z,6.57
2023-02-17T03:42:32.654Z,5.53
2023-02-17T03:45:06.105Z,8.55
2023-02-17T03:47:38.447Z,6.43
2023-02-17T03:50:11.209Z,10.10
2023-02-17T03:52:44.836Z,10.83
2023-02-17T03:55:17.639Z,10.35
2023-02-17T03:57:50.418Z,7.70
2023-02-17T04:03:16.513Z,10.05
2023-02-17T04:05:49.838Z,8.90
2023-02-17T04:08:22.807Z,9.15
2023-02-17T04:10:57.712Z,9.15
2023-02-17T04:13:30.956Z,8.48
2023-02-17T04:16:04.449Z,9.75
2023-02-17T04:18:38.648Z,11.33
2023-02-17T04:21:10.787Z,13.38
2023-02-17T04:23:43.534Z,13.15
2023-02-17T04:26:15.483Z,10.02
2023-02-17T04:28:48.616Z,14.82
2023-02-17T04:31:21.108Z,10.93
2023-02-17T04:33:53.872Z,16.27
2023-02-17T04:36:25.771Z,16.67
2023-02-17T04:38:58.483Z,14.40
2023-02-17T04:41:30.881Z,12.05
2023-02-17T04:44:02.758Z,15.43
2023-02-17T04:46:35.053Z,11.75
2023-02-17T04:49:07.008Z,14.73
2023-02-17T04:51:39.757Z,12.77
2023-02-17T04:54:12.833Z,10.20
2023-02-17T04:56:44.725Z,11.07
2023-02-17T04:59:17.462Z,10.20
2023-02-17T05:01:50.007Z,10.50
2023-02-17T05:04:21.969Z,11.07
2023-02-17T05:06:54.809Z,9.27
2023-02-17T05:09:27.528Z,12.37
2023-02-17T05:11:59.885Z,14.82
2023-02-17T05:14:34.541Z,13.50
2023-02-17T05:17:07.223Z,9.40
2023-02-17T05:19:39.217Z,11.70
2023-02-17T05:22:33.933Z,12.97
2023-02-17T05:25:07.819Z,11.00
2023-02-17T05:27:40.290Z,13.55
2023-02-17T05:30:12.990Z,11.90
2023-02-17T05:32:45.729Z,11.30
2023-02-17T05:35:17.774Z,11.87
2023-02-17T05:37:51.296Z,11.45
2023-02-17T05:40:23.242Z,10.88
2023-02-17T05:46:10.001Z,14.07
2023-02-17T05:48:43.117Z,14.90
2023-02-17T05:51:17.682Z,13.23
2023-02-17T05:53:49.982Z,12.55
2023-02-17T05:56:23.103Z,13.57
2023-02-17T05:58:57.833Z,15.68
2023-02-17T06:01:29.742Z,16.93
2023-02-17T06:04:02.458Z,14.35
2023-02-17T06:06:34.870Z,13.70
2023-02-17T06:09:06.858Z,12.30
2023-02-17T06:11:39.670Z,12.45
2023-02-17T06:14:12.051Z,11.17
2023-02-17T06:16:44.334Z,15.77
2023-02-17T06:19:16.665Z,13.27
2023-02-17T06:21:48.572Z,12.95
2023-02-17T06:24:20.837Z,15.95
2023-02-17T06:26:53.723Z,12.67
2023-02-17T06:29:27.793Z,12.27
2023-02-17T06:32:02.031Z,14.35
2023-02-17T06:34:33.949Z,11.82
2023-02-17T06:37:07.051Z,11.63
2023-02-17T06:39:39.864Z,10.67
2023-02-17T06:42:12.026Z,9.98
2023-02-17T06:44:44.800Z,9.02
2023-02-17T06:47:16.790Z,12.32
2023-02-17T06:52:43.128Z,11.37
2023-02-17T06:55:16.325Z,13.00
2023-02-17T06:57:48.377Z,13.10
2023-02-17T07:00:23.164Z,10.45
2023-02-17T07:02:55.624Z,13.68
2023-02-17T07:05:28.018Z,14.77
2023-02-17T07:08:01.057Z,12.13
2023-02-17T07:10:37.969Z,10.15
2023-02-17T07:13:10.961Z,13.30
2023-02-17T07:15:43.514Z,8.95
2023-02-17T07:18:17.346Z,9.63
2023-02-17T07:20:49.988Z,10.95
2023-02-17T07:23:22.746Z,9.50
2023-02-17T07:25:56.992Z,10.15
2023-02-17T07:28:29.276Z,7.68
2023-02-17T07:31:28.591Z,11.93
2023-02-17T07:34:03.063Z,12.27
2023-02-17T07:36:35.870Z,17.17
2023-02-17T07:39:08.121Z,14.07
2023-02-17T07:41:41.590Z,13.05
2023-02-17T07:44:16.628Z,10.27
2023-02-17T07:46:49.827Z,14.45
2023-02-17T07:49:22.707Z,12.05
2023-02-17T07:51:54.619Z,14.32
2023-02-17T07:54:28.769Z,13.98
2023-02-17T07:57:00.825Z,12.17
2023-02-17T07:59:34.232Z,15.13
2023-02-17T08:02:08.874Z,16.73
2023-02-17T08:04:40.864Z,13.77
2023-02-17T08:07:14.362Z,15.68
2023-02-17T08:10:05.886Z,15.20
2023-02-17T08:12:57.383Z,13.10
2023-02-17T08:15:34.628Z,9.90
2023-02-17T08:18:06.610Z,17.27
2023-02-17T08:20:40.334Z,15.05
2023-02-17T08:23:13.094Z,13.43
2023-02-17T08:25:44.999Z,11.68
2023-02-17T08:31:34.806Z,15.90
2023-02-17T08:34:10.974Z,12.82
2023-02-17T08:36:43.401Z,14.73
2023-02-17T08:39:18.969Z,12.20
2023-02-17T08:41:50.890Z,13.43
2023-02-17T08:44:27.683Z,9.25
2023-02-17T08:47:00.506Z,12.68
2023-02-17T08:49:33.700Z,10.17
2023-02-17T08:52:08.218Z,12.18
2023-02-17T08:57:34.034Z,11.00
2023-02-17T09:00:24.714Z,12.63
2023-02-17T09:02:56.688Z,12.80
2023-02-17T09:08:23.357Z,12.77
2023-02-17T09:10:56.792Z,12.20
2023-02-17T09:13:50.285Z,13.95
2023-02-17T09:16:25.885Z,13.40
2023-02-17T09:18:58.014Z,17.33
2023-02-17T09:24:25.780Z,14.20
2023-02-17T09:26:58.080Z,13.13
2023-02-17T09:29:31.472Z,14.90
2023-02-17T09:32:10.384Z,12.05
2023-02-17T09:34:49.690Z,11.52
2023-02-17T09:37:24.021Z,10.35
2023-02-17T09:39:56.388Z,10.02
2023-02-17T09:42:43.095Z,13.47
2023-02-17T09:45:31.620Z,9.00
2023-02-17T09:48:12.449Z,11.18
2023-02-17T09:51:01.918Z,8.93
2023-02-17T09:54:00.886Z,10.40
2023-02-17T09:56:42.439Z,7.70
2023-02-17T09:59:19.212Z,9.20
2023-02-17T10:01:59.943Z,8.18
2023-02-17T10:05:00.611Z,8.80
2023-02-17T10:08:08.195Z,6.53
2023-02-17T10:10:54.084Z,8.47
2023-02-17T10:13:36.125Z,8.15
2023-02-17T10:16:18.284Z,6.57
2023-02-17T10:19:02.649Z,8.23
2023-02-17T10:21:44.739Z,13.35
2023-02-17T10:24:18.007Z,6.53
2023-02-17T10:27:44.519Z,7.22
2023-02-17T10:30:44.689Z,10.98
2023-02-17T10:37:06.720Z,9.77
2023-02-17T10:40:02.285Z,5.87
2023-02-17T10:42:39.773Z,8.27
2023-02-17T10:45:27.507Z,8.52
2023-02-17T10:48:17.298Z,10.85
2023-02-17T10:50:54.473Z,8.15
2023-02-17T10:53:37.801Z,9.10
2023-02-17T10:56:22.976Z,10.30
2023-02-17T10:59:11.833Z,7.05
2023-02-17T11:01:45.745Z,7.47
2023-02-17T11:04:21.192Z,9.15
2023-02-17T11:07:15.076Z,16.90
2023-02-17T11:09:52.870Z,11.30
2023-02-17T11:12:41.733Z,7.35
2023-02-17T11:15:24.248Z,8.93
2023-02-17T11:18:01.428Z,7.95
2023-02-17T11:20:36.452Z,7.47
2023-02-17T11:23:25.322Z,5.78
2023-02-17T11:26:16.838Z,10.13
2023-02-17T11:28:50.984Z,7.15
2023-02-17T11:31:29.687Z,9.13
2023-02-17T11:34:21.851Z,6.13
2023-02-17T11:37:12.283Z,7.72
2023-02-17T11:39:54.214Z,11.65
2023-02-17T11:42:33.969Z,8.18
2023-02-17T11:45:30.893Z,9.93
2023-02-17T11:48:43.433Z,9.63
2023-02-17T11:51:43.743Z,10.57
2023-02-17T11:54:51.104Z,8.60
2023-02-17T11:57:42.499Z,9.57
2023-02-17T12:00:39.903Z,11.88
2023-02-17T12:03:48.710Z,6.27
2023-02-17T12:06:55.900Z,7.75
2023-02-17T12:09:58.065Z,7.15
2023-02-17T12:12:55.011Z,8.52
2023-02-17T12:15:59.687Z,6.53
2023-02-17T12:19:08.728Z,10.40
2023-02-17T12:22:16.006Z,11.65
2023-02-17T12:25:31.089Z,8.82
2023-02-17T12:28:14.289Z,7.38
2023-02-17T12:31:15.972Z,8.60
2023-02-17T12:34:47.219Z,10.70
2023-02-17T12:37:25.436Z,13.48
2023-02-17T12:40:22.067Z,10.05
2023-02-17T12:43:01.361Z,7.78
2023-02-17T12:45:51.326Z,8.70
2023-02-17T12:49:07.417Z,10.07
2023-02-17T12:51:45.806Z,8.52
2023-02-17T12:54:30.316Z,8.55
2023-02-17T12:57:11.250Z,8.52
2023-02-17T12:59:47.011Z,6.25
2023-02-17T13:02:26.823Z,6.77
2023-02-17T13:05:02.167Z,10.23
2023-02-17T13:08:00.597Z,10.43
2023-02-17T13:10:37.096Z,7.07
2023-02-17T13:13:26.915Z,7.85
2023-02-17T13:16:14.275Z,9.90
2023-02-17T13:18:50.603Z,9.25
2023-02-17T13:21:24.801Z,6.30
2023-02-17T13:24:35.524Z,7.07
2023-02-17T13:27:31.217Z,9.65
2023-02-17T13:30:39.428Z,8.93
2023-02-17T13:33:20.416Z,7.65
2023-02-17T13:35:53.340Z,8.32
2023-02-17T13:38:31.372Z,9.27
2023-02-17T13:41:07.505Z,11.88
2023-02-17T13:43:43.001Z,12.37
2023-02-17T13:46:26.440Z,8.88
2023-02-17T13:49:05.224Z,6.60
2023-02-17T13:51:37.919Z,7.30
2023-02-17T13:54:12.319Z,7.85
2023-02-17T13:56:52.454Z,7.17
2023-02-17T13:59:27.154Z,8.70
2023-02-17T14:02:00.426Z,7.90
2023-02-17T14:04:32.656Z,9.13
2023-02-17T14:07:05.778Z,7.05
2023-02-17T14:09:38.166Z,9.23
2023-02-17T14:12:24.909Z,7.43
2023-02-17T14:14:56.943Z,6.80
2023-02-17T14:17:32.982Z,8.57
2023-02-17T14:20:05.868Z,8.00
2023-02-17T14:22:38.819Z,7.33
2023-02-17T14:25:27.348Z,8.77
2023-02-17T14:27:59.796Z,6.28
2023-02-17T14:30:39.381Z,5.85
2023-02-17T14:33:17.397Z,8.02
2023-02-17T14:35:57.219Z,7.50
2023-02-17T14:38:37.710Z,10.65
2023-02-17T14:41:10.294Z,10.07
2023-02-17T14:43:42.641Z,7.85
2023-02-17T14:46:15.239Z,7.43
2023-02-17T14:48:51.338Z,8.17
2023-02-17T14:51:30.854Z,11.00
2023-02-17T14:54:13.850Z,8.07
2023-02-17T14:57:13.512Z,7.53
2023-02-17T14:59:46.094Z,9.35
2023-02-17T15:02:21.093Z,6.10
2023-02-17T15:04:53.470Z,7.13
2023-02-17T15:07:25.433Z,8.65
2023-02-17T15:09:57.776Z,6.10
2023-02-17T15:12:29.778Z,8.57
2023-02-17T15:15:02.524Z,6.80
2023-02-17T15:17:34.408Z,7.72
2023-02-17T15:20:09.834Z,5.93
2023-02-17T15:22:42.629Z,6.20
2023-02-17T15:25:22.816Z,6.53
2023-02-17T15:27:55.459Z,6.10
2023-02-17T15:30:28.603Z,10.05
2023-02-17T15:33:02.751Z,9.02
2023-02-17T15:35:35.094Z,9.65
2023-02-17T15:38:11.625Z,8.90
2023-02-17T15:40:44.037Z,7.47
2023-02-17T15:43:21.106Z,9.15
2023-02-17T15:45:53.914Z,7.57
2023-02-17T15:48:31.949Z,9.18
2023-02-17T15:51:04.790Z,8.20
2023-02-17T15:53:36.741Z,9.97
2023-02-17T15:56:27.605Z,9.30
2023-02-17T15:59:14.796Z,6.57
2023-02-17T16:01:47.359Z,10.10
2023-02-17T16:04:19.734Z,8.95
2023-02-17T16:06:52.422Z,7.43
2023-02-17T16:09:24.312Z,6.82
2023-02-17T16:11:58.552Z,7.07
2023-02-17T16:14:36.868Z,9.13
2023-02-17T16:17:16.993Z,7.00
2023-02-17T16:19:49.355Z,8.13
2023-02-17T16:22:22.081Z,7.03
2023-02-17T16:24:54.018Z,7.38
2023-02-17T16:27:26.433Z,8.32
2023-02-17T16:29:58.885Z,6.80
2023-02-17T16:32:33.235Z,6.67
2023-02-17T16:35:07.144Z,8.30
2023-02-17T16:37:39.910Z,8.45
2023-02-17T16:40:17.860Z,6.43
2023-02-17T16:42:50.519Z,7.80
2023-02-17T16:45:25.980Z,6.57
2023-02-17T16:48:01.423Z,7.75
2023-02-17T16:50:35.331Z,7.38
2023-02-17T16:53:10.967Z,7.40
2023-02-17T16:55:43.206Z,9.45
2023-02-17T16:58:23.019Z,5.70
2023-02-17T17:00:56.313Z,5.00
2023-02-17T17:03:28.765Z,6.15
2023-02-17T17:06:02.219Z,5.72
2023-02-17T17:08:35.045Z,5.80
2023-02-17T17:11:07.044Z,5.93
2023-02-17T17:13:39.369Z,4.65
2023-02-17T17:16:33.333Z,5.38
2023-02-17T17:19:05.828Z,5.85
2023-02-17T17:21:37.745Z,5.15
2023-02-17T17:24:10.457Z,5.20
2023-02-17T17:26:46.188Z,5.00
2023-02-17T17:29:19.704Z,4.97
2023-02-17T17:31:51.784Z,4.38
2023-02-17T17:34:24.678Z,5.35
2023-02-17T17:36:57.297Z,4.87
2023-02-17T17:39:29.672Z,4.70
2023-02-17T17:42:01.621Z,5.88
2023-02-17T17:44:34.014Z,5.18
2023-02-17T17:47:06.110Z,4.97
2023-02-17T17:49:38.444Z,5.20
2023-02-17T17:52:10.382Z,5.20
2023-02-17T17:54:43.534Z,6.63
2023-02-17T17:57:15.458Z,10.15
2023-02-17T17:59:47.940Z,7.55
2023-02-17T18:02:19.849Z,5.47
2023-02-17T18:04:52.528Z,4.78
2023-02-17T18:07:26.109Z,5.78
2023-02-17T18:09:59.000Z,7.30
2023-02-17T18:12:33.548Z,5.40
2023-02-17T18:15:07.815Z,6.73
2023-02-17T18:17:42.176Z,5.45
2023-02-17T18:20:15.196Z,9.82
2023-02-17T18:22:48.580Z,6.22
2023-02-17T18:25:21.411Z,8.52
2023-02-17T18:27:53.781Z,6.27
2023-02-17T18:30:27.663Z,6.40
2023-02-17T18:33:00.122Z,6.72
2023-02-17T18:35:38.726Z,7.63
2023-02-17T18:38:12.175Z,6.47
2023-02-17T18:40:44.762Z,7.30
2023-02-17T18:43:16.831Z,7.03
2023-02-17T18:45:50.272Z,5.28
2023-02-17T18:48:22.862Z,5.43
2023-02-17T18:50:55.233Z,5.03
2023-02-17T18:53:27.827Z,4.37
2023-02-17T18:56:00.773Z,5.32
2023-02-17T18:58:57.894Z,7.50
2023-02-17T19:01:34.703Z,5.20
2023-02-17T19:04:12.206Z,6.03
2023-02-17T19:06:44.570Z,5.87
2023-02-17T19:09:16.985Z,5.80
2023-02-17T19:11:48.843Z,8.38
2023-02-17T19:14:22.173Z,5.50
2023-02-17T19:16:54.062Z,4.88
2023-02-17T19:19:29.642Z,6.70
2023-02-17T19:22:03.881Z,7.50
2023-02-17T19:24:38.381Z,8.23
2023-02-17T19:27:12.396Z,6.55
2023-02-17T19:29:44.334Z,6.60
2023-02-17T19:32:17.152Z,8.17
2023-02-17T19:34:50.313Z,6.00
2023-02-17T19:37:23.364Z,5.63
2023-02-17T19:39:56.004Z,6.45
2023-02-17T19:42:28.560Z,6.60
2023-02-17T19:45:00.885Z,6.07
2023-02-17T19:47:33.245Z,7.43
2023-02-17T19:50:08.325Z,8.40
2023-02-17T19:52:41.055Z,6.50
2023-02-17T19:55:14.205Z,6.45
2023-02-17T19:57:50.035Z,7.67
2023-02-17T20:00:22.029Z,6.22
2023-02-17T20:02:55.417Z,6.30
2023-02-17T20:05:27.804Z,5.55
2023-02-17T20:08:01.050Z,7.47
2023-02-17T20:10:33.973Z,6.27
2023-02-17T20:13:06.644Z,7.05
2023-02-17T20:15:39.061Z,7.78
2023-02-17T20:18:12.214Z,6.05
2023-02-17T20:20:53.789Z,5.95
2023-02-17T20:23:27.685Z,6.60
2023-02-17T20:26:05.862Z,6.03
2023-02-17T20:28:38.495Z,7.13
2023-02-17T20:31:11.493Z,6.05
2023-02-17T20:33:45.091Z,6.75
2023-02-17T20:36:17.563Z,6.47
2023-02-17T20:38:51.270Z,7.30
2023-02-17T20:41:24.508Z,8.45
2023-02-17T20:43:59.130Z,7.07
2023-02-17T20:46:31.314Z,9.95
2023-02-17T20:49:04.074Z,9.03
2023-02-17T20:51:37.089Z,8.15
2023-02-17T20:54:10.043Z,6.65
2023-02-17T20:56:46.189Z,6.45
2023-02-17T20:59:18.614Z,6.43
2023-02-17T21:01:50.747Z,7.03
2023-02-17T21:04:23.521Z,6.53
2023-02-17T21:06:55.474Z,7.55
2023-02-17T21:09:27.826Z,6.68
2023-02-17T21:12:00.155Z,7.72
2023-02-17T21:14:32.210Z,5.17
2023-02-17T21:17:04.681Z,7.65
2023-02-17T21:19:38.274Z,7.15
2023-02-17T21:22:10.486Z,6.00
2023-02-17T21:24:43.244Z,6.88
2023-02-17T21:27:15.111Z,5.87
2023-02-17T21:29:47.832Z,6.38
2023-02-17T21:32:20.918Z,7.60
2023-02-17T21:34:53.291Z,8.10
2023-02-17T21:37:25.642Z,6.82
2023-02-17T21:39:58.350Z,6.90
2023-02-17T21:42:50.102Z,8.60
2023-02-17T21:45:22.750Z,7.25
2023-02-17T21:47:56.107Z,6.78
2023-02-17T21:50:28.386Z,7.38
2023-02-17T21:53:01.250Z,6.97
2023-02-17T21:55:33.223Z,9.30
2023-02-17T21:58:05.826Z,7.57
2023-02-17T22:00:39.008Z,6.63
2023-02-17T22:03:11.379Z,7.18
2023-02-17T22:05:45.084Z,5.97
2023-02-17T22:08:17.131Z,7.20
2023-02-17T22:10:50.078Z,6.53
2023-02-17T22:13:23.714Z,5.85
2023-02-17T22:15:58.712Z,5.88
2023-02-17T22:18:31.919Z,6.17
2023-02-17T22:21:10.291Z,6.00
2023-02-17T22:23:43.201Z,7.63
2023-02-17T22:26:20.287Z,6.65
2023-02-17T22:28:54.738Z,6.88
2023-02-17T22:31:29.541Z,6.60
2023-02-17T22:34:06.936Z,6.38
2023-02-17T22:36:38.902Z,6.07
2023-02-17T22:42:04.892Z,6.40
2023-02-17T22:44:55.580Z,4.80
2023-02-17T22:47:28.288Z,6.30
2023-02-17T22:50:00.199Z,5.63
2023-02-17T22:52:32.965Z,8.57
2023-02-17T22:55:05.186Z,5.15
2023-02-17T22:57:38.418Z,5.50
2023-02-17T23:00:11.261Z,8.63
2023-02-17T23:03:05.960Z,7.60
2023-02-17T23:05:37.897Z,6.80
2023-02-17T23:08:14.074Z,6.97
2023-02-17T23:10:46.846Z,7.27
2023-02-17T23:13:19.679Z,4.90
2023-02-17T23:15:51.875Z,5.18
2023-02-17T23:18:24.338Z,5.20
2023-02-17T23:20:56.234Z,5.72
2023-02-17T23:23:28.962Z,8.83
2023-02-17T23:26:01.306Z,5.13
2023-02-17T23:28:34.817Z,5.97
2023-02-17T23:31:10.772Z,5.82
2023-02-17T23:33:43.546Z,4.43
2023-02-17T23:36:15.442Z,5.10
2023-02-17T23:38:48.155Z,6.55
2023-02-17T23:41:20.045Z,4.93
2023-02-17T23:43:52.805Z,4.70
2023-02-17T23:46:24.755Z,4.95
2023-02-17T23:48:57.528Z,5.17
2023-02-17T23:51:29.472Z,4.93
2023-02-17T23:54:02.355Z,5.50
2023-02-17T23:56:36.395Z,5.22
2023-02-17T23:59:08.773Z,5.22
